createdAt,value
2022-11-27T00:00:15.816Z,248
2022-11-27T00:05:15.948Z,225
2022-11-27T00:10:15.809Z,248
2022-11-27T00:15:17.341Z,248
2022-11-27T00:20:15.824Z,248
2022-11-27T00:25:15.819Z,248
2022-11-27T00:30:15.857Z,248
2022-11-27T00:35:15.952Z,248
2022-11-27T00:40:15.933Z,225
2022-11-27T00:45:16.084Z,225
2022-11-27T00:50:16.253Z,225
2022-11-27T00:55:16.051Z,225
2022-11-27T01:00:16.025Z,202
2022-11-27T01:05:16.118Z,202
2022-11-27T01:10:15.969Z,202
2022-11-27T01:15:16.105Z,225
2022-11-27T01:20:16.089Z,225
2022-11-27T01:25:15.974Z,225
2022-11-27T01:30:16.003Z,225
2022-11-27T01:35:15.965Z,225
2022-11-27T01:40:16.025Z,225
2022-11-27T01:45:16.172Z,248
2022-11-27T01:50:16.323Z,225
2022-11-27T01:55:16.022Z,225
2022-11-27T02:00:16.092Z,225
2022-11-27T02:05:16.101Z,225
2022-11-27T02:10:16.101Z,225
2022-11-27T02:15:16.206Z,225
2022-11-27T02:20:16.095Z,225
2022-11-27T02:25:16.170Z,225
2022-11-27T02:30:16.151Z,225
2022-11-27T02:35:16.121Z,225
2022-11-27T02:40:16.171Z,225
2022-11-27T02:45:16.153Z,225
2022-11-27T02:50:16.245Z,225
2022-11-27T02:55:16.351Z,225
2022-11-27T03:00:16.244Z,225
2022-11-27T03:05:16.254Z,225
2022-11-27T03:10:16.347Z,225
2022-11-27T03:15:16.199Z,202
2022-11-27T03:20:16.360Z,225
2022-11-27T03:25:16.329Z,225
2022-11-27T03:30:16.274Z,225
2022-11-27T03:35:16.312Z,225
2022-11-27T03:40:16.418Z,248
2022-11-27T03:45:16.373Z,248
2022-11-27T03:50:16.331Z,248
2022-11-27T03:55:16.296Z,248
2022-11-27T04:00:16.401Z,225
2022-11-27T04:05:16.383Z,248
2022-11-27T04:10:16.323Z,225
2022-11-27T04:15:16.346Z,225
2022-11-27T04:20:16.628Z,202
2022-11-27T04:25:16.574Z,225
2022-11-27T04:30:16.567Z,225
2022-11-27T04:35:16.445Z,248
2022-11-27T04:40:16.471Z,248
2022-11-27T04:45:16.472Z,248
2022-11-27T04:50:16.440Z,248
2022-11-27T04:55:16.441Z,248
2022-11-27T05:00:15.602Z,225
2022-11-27T05:05:15.459Z,225
2022-11-27T05:10:15.642Z,225
2022-11-27T05:15:15.630Z,225
2022-11-27T05:20:15.540Z,248
2022-11-27T05:25:15.513Z,248
2022-11-27T05:30:15.501Z,225
2022-11-27T05:35:15.745Z,225
2022-11-27T05:40:15.597Z,248
2022-11-27T05:45:15.838Z,225
2022-11-27T05:50:15.598Z,248
2022-11-27T05:55:15.688Z,225
2022-11-27T06:00:15.690Z,225
2022-11-27T06:05:15.719Z,225
2022-11-27T06:10:15.594Z,225
2022-11-27T06:15:15.654Z,225
2022-11-27T06:20:15.740Z,225
2022-11-27T06:25:15.663Z,225
2022-11-27T06:30:15.680Z,248
2022-11-27T06:35:15.735Z,248
2022-11-27T06:40:15.719Z,248
2022-11-27T06:45:15.643Z,270
2022-11-27T06:50:15.681Z,248
2022-11-27T06:55:15.828Z,248
2022-11-27T07:00:15.731Z,248
2022-11-27T07:05:15.716Z,225
2022-11-27T07:10:15.782Z,225
2022-11-27T07:15:15.750Z,225
2022-11-27T07:20:15.904Z,225
2022-11-27T07:25:15.909Z,225
2022-11-27T07:30:15.866Z,225
2022-11-27T07:35:15.832Z,225
2022-11-27T07:40:15.841Z,225
2022-11-27T07:45:15.785Z,225
2022-11-27T07:50:15.923Z,225
2022-11-27T07:55:15.716Z,225
2022-11-27T08:00:15.798Z,225
2022-11-27T08:05:15.882Z,225
2022-11-27T08:10:15.903Z,225
2022-11-27T08:15:15.998Z,225
2022-11-27T08:20:15.935Z,225
2022-11-27T08:25:16.172Z,225
2022-11-27T08:30:15.802Z,225
2022-11-27T08:35:15.887Z,202
2022-11-27T08:40:15.908Z,202
2022-11-27T08:45:16.040Z,202
2022-11-27T08:50:16.034Z,225
2022-11-27T08:55:15.961Z,248
2022-11-27T09:00:15.967Z,248
2022-11-27T09:05:15.940Z,225
2022-11-27T09:10:16.009Z,225
2022-11-27T09:15:16.061Z,225
2022-11-27T09:20:16.329Z,225
2022-11-27T09:25:16.081Z,202
2022-11-27T09:30:16.097Z,202
2022-11-27T09:35:16.120Z,225
2022-11-27T09:40:16.114Z,202
2022-11-27T09:45:16.069Z,202
2022-11-27T09:50:16.004Z,202
2022-11-27T09:55:16.057Z,202
2022-11-27T10:00:16.058Z,202
2022-11-27T10:05:16.629Z,202
2022-11-27T10:10:16.230Z,202
2022-11-27T10:15:16.112Z,202
2022-11-27T10:20:16.127Z,202
2022-11-27T10:25:16.202Z,225
2022-11-27T10:30:16.235Z,202
2022-11-27T10:35:16.283Z,202
2022-11-27T10:40:16.200Z,202
2022-11-27T10:45:16.227Z,202
2022-11-27T10:50:16.256Z,202
2022-11-27T10:55:16.226Z,202
2022-11-27T11:00:16.238Z,202
2022-11-27T11:05:34.984Z,202
2022-11-27T11:10:16.291Z,202
2022-11-27T11:15:16.402Z,225
2022-11-27T11:20:16.315Z,225
2022-11-27T11:25:16.256Z,202
2022-11-27T11:30:16.562Z,202
2022-11-27T11:35:16.306Z,202
2022-11-27T11:40:16.708Z,225
2022-11-27T11:45:16.413Z,225
2022-11-27T11:50:16.426Z,225
2022-11-27T11:55:16.344Z,225
2022-11-27T12:00:16.427Z,202
2022-11-27T12:05:16.349Z,202
2022-11-27T12:10:16.784Z,202
2022-11-27T12:15:16.439Z,202
2022-11-27T12:20:16.493Z,225
2022-11-27T12:25:16.396Z,225
2022-11-27T12:30:16.544Z,225
2022-11-27T12:35:16.530Z,202
2022-11-27T12:40:16.561Z,202
2022-11-27T12:45:16.464Z,225
2022-11-27T12:50:16.520Z,225
2022-11-27T12:55:16.847Z,225
2022-11-27T13:00:16.480Z,225
2022-11-27T13:05:16.555Z,202
2022-11-27T13:10:16.644Z,202
2022-11-27T13:15:16.569Z,225
2022-11-27T13:20:16.601Z,225
2022-11-27T13:25:16.563Z,225
2022-11-27T13:30:16.694Z,225
2022-11-27T13:35:16.595Z,225
2022-11-27T13:40:16.536Z,225
2022-11-27T13:45:16.577Z,225
2022-11-27T13:50:17.045Z,225
2022-11-27T13:55:16.659Z,225
2022-11-27T14:00:16.665Z,225
2022-11-27T14:05:16.795Z,225
2022-11-27T14:10:16.790Z,225
2022-11-27T14:15:16.731Z,225
2022-11-27T14:20:16.799Z,248
2022-11-27T14:25:16.758Z,270
2022-11-27T14:30:16.709Z,225
2022-11-27T14:35:16.645Z,225
2022-11-27T14:40:17.099Z,225
2022-11-27T14:45:16.762Z,225
2022-11-27T14:50:16.737Z,225
2022-11-27T14:55:16.829Z,225
2022-11-27T15:00:16.758Z,225
2022-11-27T15:05:16.831Z,225
2022-11-27T15:10:16.910Z,225
2022-11-27T15:15:16.804Z,225
2022-11-27T15:20:16.970Z,225
2022-11-27T15:25:16.907Z,202
2022-11-27T15:30:16.947Z,225
2022-11-27T15:35:16.842Z,202
2022-11-27T15:40:17.053Z,202
2022-11-27T15:45:16.853Z,202
2022-11-27T15:50:16.886Z,202
2022-11-27T15:55:16.751Z,202
2022-11-27T16:00:16.837Z,202
2022-11-27T16:05:16.907Z,202
2022-11-27T16:10:16.903Z,202
2022-11-27T16:15:17.073Z,202
2022-11-27T16:20:17.008Z,202
2022-11-27T16:25:17.067Z,202
2022-11-27T16:30:17.116Z,202
2022-11-27T16:35:16.974Z,202
2022-11-27T16:40:17.027Z,202
2022-11-27T16:45:17.012Z,202
2022-11-27T16:50:17.002Z,202
2022-11-27T16:55:16.942Z,202
2022-11-27T17:00:17.032Z,202
2022-11-27T17:05:16.992Z,225
2022-11-27T17:10:17.156Z,202
2022-11-27T17:15:17.168Z,202
2022-11-27T17:20:17.075Z,202
2022-11-27T17:25:17.090Z,202
2022-11-27T17:30:17.050Z,202
2022-11-27T17:35:17.217Z,202
2022-11-27T17:40:17.302Z,202
2022-11-27T17:45:17.389Z,202
2022-11-27T17:50:18.041Z,202
2022-11-27T17:55:17.042Z,202
2022-11-27T18:00:17.287Z,202
2022-11-27T18:05:17.143Z,202
2022-11-27T18:10:17.285Z,202
2022-11-27T18:15:17.190Z,202
2022-11-27T18:20:17.368Z,202
2022-11-27T18:25:17.210Z,202
2022-11-27T18:30:17.277Z,202
2022-11-27T18:35:17.194Z,225
2022-11-27T18:40:17.280Z,202
2022-11-27T18:45:32.348Z,202
2022-11-27T18:50:17.312Z,202
2022-11-27T18:55:17.413Z,202
2022-11-27T19:00:17.317Z,202
2022-11-27T19:05:17.356Z,202
2022-11-27T19:10:17.496Z,202
2022-11-27T19:15:17.530Z,202
2022-11-27T19:20:17.415Z,202
2022-11-27T19:25:17.305Z,202
2022-11-27T19:30:17.467Z,202
2022-11-27T19:35:17.331Z,202
2022-11-27T19:40:17.521Z,202
2022-11-27T19:45:17.518Z,202
2022-11-27T19:50:15.362Z,202
2022-11-27T19:55:15.344Z,202
2022-11-27T20:00:15.433Z,202
2022-11-27T20:05:15.493Z,202
2022-11-27T20:10:15.538Z,202
2022-11-27T20:15:15.451Z,202
2022-11-27T20:20:15.666Z,202
2022-11-27T20:25:20.139Z,202
2022-11-27T20:30:15.464Z,202
2022-11-27T20:35:15.576Z,202
2022-11-27T20:40:15.469Z,202
2022-11-27T20:45:20.209Z,202
2022-11-27T20:50:15.528Z,202
2022-11-27T20:55:15.549Z,202
2022-11-27T21:00:15.613Z,202
2022-11-27T21:05:15.563Z,180
2022-11-27T21:10:15.572Z,158
2022-11-27T21:15:15.533Z,180
2022-11-27T21:20:15.614Z,202
2022-11-27T21:25:15.557Z,202
2022-11-27T21:30:15.627Z,225
2022-11-27T21:35:15.736Z,225
2022-11-27T21:40:15.682Z,225
2022-11-27T21:45:15.785Z,202
2022-11-27T21:50:15.713Z,202
2022-11-27T21:55:15.598Z,202
2022-11-27T22:00:15.685Z,202
2022-11-27T22:05:15.769Z,202
2022-11-27T22:10:15.803Z,202
2022-11-27T22:15:15.735Z,202
2022-11-27T22:20:15.879Z,202
2022-11-27T22:25:15.841Z,202
2022-11-27T22:30:16.050Z,202
2022-11-27T22:35:15.733Z,202
2022-11-27T22:40:15.812Z,202
2022-11-27T22:45:15.740Z,202
2022-11-27T22:50:15.827Z,202
2022-11-27T22:55:15.945Z,202
2022-11-27T23:00:15.836Z,202
2022-11-27T23:05:15.808Z,180
2022-11-27T23:10:15.790Z,180
2022-11-27T23:15:15.799Z,180
2022-11-27T23:20:15.889Z,135
2022-11-27T23:25:15.817Z,135
2022-11-27T23:30:15.999Z,112
2022-11-27T23:35:15.860Z,202
2022-11-27T23:40:15.836Z,202
2022-11-27T23:45:16.124Z,180
2022-11-27T23:50:15.924Z,180
2022-11-27T23:55:15.789Z,180
